EGPK/PIK METAR and TAF weather

Enter ICAO airport designator
Station Type Date Time Source
EGPK METAR 2019/06/16 07:20 UTC NOAA

EGPK 160720Z 15004KT 9999 FEW025 SCT035 12/09 Q1009


Station Type Date Time Source
EGPK Decoded METAR 2019/06/16 07:20 UTC NOAA

Prestwick Airport, United Kingdom (EGPK) 55-30N 004-35W 0M
Jun 16, 2019 - 03:20 AM EDT / 2019.06.16 0720 UTC
Wind: from the SSE (150 degrees) at 5 MPH (4 KT):0
Visibility: greater than 7 mile(s):0
Sky conditions: partly cloudy
Temperature: 53 F (12 C)
Dew Point: 48 F (9 C)
Relative Humidity: 81%
Pressure (altimeter): 29.80 in. Hg (1009 hPa)
ob: EGPK 160720Z 15004KT 9999 FEW025 SCT035 12/09 Q1009
cycle: 7

Station Type Date Time Source
EGPK TAF 2019/06/16 06:09 UTC NOAA

TAF TAF EGPK 160501Z 1606/1706 21009KT 9999 SCT045 PROB40
TEMPO 1608/1619 6000 SHRA
TEMPO 1619/1701 6000 RA BKN014 PROB30
TEMPO 1619/1624 3000 +RA BKN009 PROB40
TEMPO 1701/1706 BKN012

Example: see airport list